createdAt,value
2022-08-24T00:01:10.813Z,17.90
2022-08-24T00:06:23.758Z,17.70
2022-08-24T00:11:31.579Z,20.80
2022-08-24T00:16:38.685Z,19.60
2022-08-24T00:21:45.791Z,16.60
2022-08-24T00:26:54.270Z,20.20
2022-08-24T00:32:01.703Z,15.00
2022-08-24T00:37:09.133Z,18.00
2022-08-24T00:42:16.236Z,18.60
2022-08-24T00:47:27.215Z,24.30
2022-08-24T00:52:37.029Z,21.00
2022-08-24T00:57:47.925Z,19.20
2022-08-24T01:02:59.782Z,22.30
2022-08-24T01:08:11.404Z,22.50
2022-08-24T01:13:19.241Z,24.30
2022-08-24T01:18:47.402Z,18.60
2022-08-24T01:23:57.451Z,21.40
2022-08-24T01:29:08.900Z,19.70
2022-08-24T01:34:16.691Z,21.00
2022-08-24T01:39:26.565Z,19.40
2022-08-24T01:44:36.601Z,20.60
2022-08-24T01:49:48.141Z,17.10
2022-08-24T01:54:56.204Z,16.50
2022-08-24T02:00:03.160Z,16.00
2022-08-24T02:05:12.821Z,17.70
2022-08-24T02:10:20.346Z,18.50
2022-08-24T02:15:29.584Z,16.70
2022-08-24T02:20:39.082Z,13.60
2022-08-24T02:25:46.619Z,16.10
2022-08-24T02:31:00.006Z,19.70
2022-08-24T02:36:21.843Z,17.80
2022-08-24T02:41:36.164Z,18.30
2022-08-24T02:46:45.118Z,19.00
2022-08-24T02:51:53.761Z,16.00
2022-08-24T02:57:02.375Z,14.00
2022-08-24T03:02:14.494Z,15.00
2022-08-24T03:07:23.448Z,15.30
2022-08-24T03:12:33.062Z,17.10
2022-08-24T03:17:43.025Z,14.00
2022-08-24T03:22:51.383Z,14.90
2022-08-24T03:28:01.625Z,15.00
2022-08-24T03:33:12.114Z,15.20
2022-08-24T03:38:20.574Z,16.50
2022-08-24T03:43:45.959Z,15.30
2022-08-24T03:48:53.621Z,15.40
2022-08-24T03:54:03.646Z,16.70
2022-08-24T03:59:12.382Z,16.00
2022-08-24T04:04:19.631Z,16.60
2022-08-24T04:09:28.127Z,12.90
2022-08-24T04:14:37.939Z,18.40
2022-08-24T04:19:58.336Z,19.30
2022-08-24T04:25:13.069Z,18.70
2022-08-24T04:30:23.079Z,16.30
2022-08-24T04:35:30.339Z,18.40
2022-08-24T04:40:39.637Z,20.70
2022-08-24T04:45:53.084Z,20.80
2022-08-24T04:51:13.825Z,19.90
2022-08-24T04:56:25.120Z,21.00
2022-08-24T05:01:35.544Z,21.60
2022-08-24T05:06:44.494Z,18.20
2022-08-24T05:11:53.983Z,18.20
2022-08-24T05:17:03.613Z,18.80
2022-08-24T05:22:13.554Z,21.50
2022-08-24T05:27:25.209Z,20.00
2022-08-24T05:32:33.545Z,18.70
2022-08-24T05:37:43.966Z,20.90
2022-08-24T05:42:54.301Z,21.50
2022-08-24T05:48:04.361Z,19.00
2022-08-24T05:53:12.641Z,14.30
2022-08-24T05:58:30.578Z,17.20
2022-08-24T06:03:39.361Z,20.50
2022-08-24T06:08:49.940Z,21.00
2022-08-24T06:14:00.554Z,22.90
2022-08-24T06:19:10.158Z,18.80
2022-08-24T06:24:20.506Z,15.40
2022-08-24T06:29:28.785Z,18.10
2022-08-24T06:34:37.431Z,16.70
2022-08-24T06:39:45.491Z,19.50
2022-08-24T06:44:54.180Z,14.90
2022-08-24T06:50:02.966Z,17.90
2022-08-24T06:55:13.207Z,21.30
2022-08-24T07:00:21.425Z,16.10
2022-08-24T07:05:29.113Z,15.70
2022-08-24T07:10:37.684Z,15.20
2022-08-24T07:15:45.904Z,14.40
2022-08-24T07:20:53.779Z,14.10
2022-08-24T07:26:08.667Z,15.40
2022-08-24T07:31:16.070Z,17.50
2022-08-24T07:36:23.964Z,19.70
2022-08-24T07:42:09.065Z,16.90
2022-08-24T07:47:15.098Z,18.70
2022-08-24T07:52:29.169Z,18.90
2022-08-24T07:57:40.225Z,18.80
2022-08-24T08:03:00.567Z,20.10
2022-08-24T08:08:13.275Z,18.50
2022-08-24T08:13:21.512Z,15.70
2022-08-24T08:18:31.260Z,17.30
2022-08-24T08:24:00.213Z,18.90
2022-08-24T08:29:10.645Z,18.10
2022-08-24T08:34:18.079Z,17.40
2022-08-24T08:39:26.278Z,16.90
2022-08-24T08:44:46.832Z,15.30
2022-08-24T08:50:08.177Z,15.40
2022-08-24T08:55:29.284Z,17.40
2022-08-24T09:00:51.968Z,17.30
2022-08-24T09:06:25.868Z,14.50
2022-08-24T09:11:45.239Z,16.40
2022-08-24T09:17:13.291Z,18.30
2022-08-24T09:22:23.860Z,19.70
2022-08-24T09:27:44.066Z,18.50
2022-08-24T09:33:10.391Z,16.40
2022-08-24T09:38:26.522Z,16.10
2022-08-24T09:44:03.447Z,18.60
2022-08-24T09:49:50.528Z,16.20
2022-08-24T09:55:29.099Z,17.50
2022-08-24T10:00:45.251Z,17.10
2022-08-24T10:11:19.982Z,15.30
2022-08-24T10:16:35.576Z,15.70
2022-08-24T10:21:58.722Z,18.80
2022-08-24T10:27:22.757Z,17.90
2022-08-24T10:32:47.549Z,15.30
2022-08-24T10:38:34.915Z,16.40
2022-08-24T10:44:18.270Z,13.30
2022-08-24T10:50:02.895Z,15.10
2022-08-24T10:55:21.282Z,15.00
2022-08-24T11:00:32.875Z,15.00
2022-08-24T11:05:44.258Z,13.70
2022-08-24T11:11:12.648Z,14.50
2022-08-24T11:16:28.180Z,17.70
2022-08-24T11:21:47.004Z,15.60
2022-08-24T11:27:01.346Z,16.90
2022-08-24T11:32:10.137Z,17.10
2022-08-24T11:37:27.056Z,17.10
2022-08-24T11:43:06.060Z,18.10
2022-08-24T11:48:32.098Z,15.60
2022-08-24T11:53:48.612Z,15.60
2022-08-24T11:59:06.271Z,13.60
2022-08-24T12:09:53.784Z,13.10
2022-08-24T12:15:08.968Z,14.00
2022-08-24T12:20:27.635Z,16.10
2022-08-24T12:26:05.848Z,16.30
2022-08-24T12:31:24.207Z,13.60
2022-08-24T12:36:38.769Z,14.80
2022-08-24T12:41:56.253Z,14.10
2022-08-24T12:47:04.058Z,13.90
2022-08-24T12:52:41.967Z,11.70
2022-08-24T12:58:00.762Z,12.80
2022-08-24T13:03:25.243Z,14.00
2022-08-24T13:08:40.618Z,12.80
2022-08-24T13:14:18.382Z,12.40
2022-08-24T13:19:45.603Z,13.20
2022-08-24T13:25:02.777Z,11.60
2022-08-24T13:30:24.228Z,13.50
2022-08-24T13:35:55.805Z,12.40
2022-08-24T13:41:12.591Z,13.40
2022-08-24T13:46:30.023Z,14.20
2022-08-24T13:51:44.485Z,13.80
2022-08-24T13:57:07.663Z,14.30
2022-08-24T14:02:32.646Z,14.10
2022-08-24T14:07:55.542Z,17.40
2022-08-24T14:13:07.863Z,14.30
2022-08-24T14:18:24.725Z,15.40
2022-08-24T14:23:53.479Z,14.00
2022-08-24T14:29:29.434Z,13.60
2022-08-24T14:34:45.951Z,15.00
2022-08-24T14:40:05.564Z,14.30
2022-08-24T14:45:35.472Z,14.80
2022-08-24T14:50:51.737Z,17.10
2022-08-24T14:56:24.377Z,14.90
2022-08-24T15:01:44.878Z,16.80
2022-08-24T15:06:56.317Z,15.40
2022-08-24T15:12:14.650Z,17.80
2022-08-24T15:17:27.553Z,16.40
2022-08-24T15:22:44.397Z,18.30
2022-08-24T15:27:57.512Z,20.10
2022-08-24T15:33:10.523Z,18.70
2022-08-24T15:38:24.271Z,17.70
2022-08-24T15:43:32.953Z,19.50
2022-08-24T15:48:43.991Z,19.10
2022-08-24T15:53:51.799Z,19.10
2022-08-24T15:59:10.360Z,16.30
2022-08-24T16:04:40.898Z,6.10
2022-08-24T16:09:48.294Z,5.00
2022-08-24T16:15:10.055Z,4.70
2022-08-24T16:20:32.943Z,5.00
2022-08-24T16:25:46.922Z,4.70
2022-08-24T16:30:59.583Z,4.70
2022-08-24T16:36:11.584Z,4.30
2022-08-24T16:41:21.579Z,4.50
2022-08-24T16:46:29.621Z,5.40
2022-08-24T16:51:38.913Z,5.50
2022-08-24T16:56:52.540Z,5.60
2022-08-24T17:02:03.047Z,4.90
2022-08-24T17:07:18.010Z,5.20
2022-08-24T17:12:28.297Z,5.50
2022-08-24T17:17:38.351Z,5.00
2022-08-24T17:22:46.089Z,4.70
2022-08-24T17:27:57.472Z,4.50
2022-08-24T17:33:06.271Z,5.10
2022-08-24T17:38:14.535Z,4.50
2022-08-24T17:43:21.751Z,4.40
2022-08-24T17:48:34.067Z,4.70
2022-08-24T17:53:42.276Z,5.00
2022-08-24T17:59:07.981Z,4.70
2022-08-24T18:04:16.446Z,4.10
2022-08-24T18:09:30.518Z,3.90
2022-08-24T18:14:41.420Z,4.30
2022-08-24T18:19:51.123Z,4.50
2022-08-24T18:24:59.206Z,4.50
2022-08-24T18:30:09.675Z,4.90
2022-08-24T18:35:18.507Z,4.80
2022-08-24T18:40:33.164Z,5.10
2022-08-24T18:45:41.825Z,5.10
2022-08-24T18:50:51.028Z,5.00
2022-08-24T18:56:03.128Z,5.60
2022-08-24T19:01:14.751Z,4.40
2022-08-24T19:06:23.622Z,4.70
2022-08-24T19:11:31.546Z,4.40
2022-08-24T19:16:41.512Z,4.60
2022-08-24T19:21:49.361Z,5.30
2022-08-24T19:27:01.821Z,5.20
2022-08-24T19:32:20.195Z,5.50
2022-08-24T19:37:31.834Z,4.80
2022-08-24T19:42:40.339Z,5.90
2022-08-24T19:47:48.303Z,5.30
2022-08-24T19:52:58.081Z,5.50
2022-08-24T19:58:10.709Z,5.60
2022-08-24T20:03:18.240Z,5.90
2022-08-24T20:08:27.074Z,5.90
2022-08-24T20:13:34.735Z,6.30
2022-08-24T20:18:44.306Z,5.30
2022-08-24T20:23:53.749Z,5.80
2022-08-24T20:29:02.351Z,5.80
2022-08-24T20:34:10.855Z,5.80
2022-08-24T20:39:21.172Z,6.20
2022-08-24T20:44:29.080Z,6.00
2022-08-24T20:49:37.886Z,8.20
2022-08-24T20:54:45.832Z,8.30
2022-08-24T20:59:54.107Z,6.70
2022-08-24T21:05:02.768Z,6.50
2022-08-24T21:10:10.824Z,6.50
2022-08-24T21:15:18.528Z,6.70
2022-08-24T21:20:26.573Z,6.50
2022-08-24T21:25:36.121Z,5.90
2022-08-24T21:30:43.468Z,6.80
2022-08-24T21:35:54.002Z,6.90
2022-08-24T21:41:03.205Z,6.40
2022-08-24T21:46:13.954Z,6.70
2022-08-24T21:51:21.403Z,6.30
2022-08-24T21:56:31.634Z,6.40
2022-08-24T22:01:40.359Z,7.60
2022-08-24T22:06:47.573Z,7.80
2022-08-24T22:11:56.121Z,7.50
2022-08-24T22:17:04.976Z,8.20
2022-08-24T22:22:13.266Z,8.20
2022-08-24T22:27:24.956Z,7.90
2022-08-24T22:32:33.675Z,8.40
2022-08-24T22:37:42.520Z,9.40
2022-08-24T22:42:50.460Z,8.30
2022-08-24T22:47:57.712Z,16.70
2022-08-24T22:53:05.897Z,12.10
2022-08-24T22:58:14.441Z,9.90
2022-08-24T23:03:22.712Z,15.70
2022-08-24T23:08:30.650Z,12.50
2022-08-24T23:13:38.601Z,12.90
2022-08-24T23:19:04.010Z,11.40
2022-08-24T23:24:14.066Z,10.70
2022-08-24T23:29:22.768Z,9.30
2022-08-24T23:34:30.257Z,10.10
2022-08-24T23:39:39.317Z,9.60
2022-08-24T23:44:50.069Z,9.20
2022-08-24T23:50:02.906Z,8.90
2022-08-24T23:55:21.268Z,11.40
